createdAt,value
2023-03-07T00:01:00.412Z,2.33
2023-03-07T00:03:27.574Z,2.53
2023-03-07T00:06:07.498Z,2.47
2023-03-07T00:08:34.731Z,2.83
2023-03-07T00:11:07.350Z,2.50
2023-03-07T00:13:36.680Z,2.28
2023-03-07T00:16:06.307Z,2.40
2023-03-07T00:18:34.133Z,3.08
2023-03-07T00:21:06.146Z,2.53
2023-03-07T00:23:34.764Z,2.40
2023-03-07T00:26:04.485Z,2.40
2023-03-07T00:28:31.767Z,2.40
2023-03-07T00:31:03.915Z,2.13
2023-03-07T00:33:31.138Z,2.00
2023-03-07T00:36:00.335Z,2.90
2023-03-07T00:38:30.796Z,2.30
2023-03-07T00:41:02.950Z,2.20
2023-03-07T00:43:30.895Z,1.88
2023-03-07T00:45:58.396Z,1.77
2023-03-07T00:48:26.380Z,2.58
2023-03-07T00:50:53.696Z,1.80
2023-03-07T00:53:21.566Z,2.17
2023-03-07T00:56:03.115Z,2.25
2023-03-07T00:58:32.908Z,2.17
2023-03-07T01:01:00.875Z,2.03
2023-03-07T01:03:28.650Z,2.25
2023-03-07T01:05:55.945Z,1.88
2023-03-07T01:08:23.982Z,1.73
2023-03-07T01:10:51.141Z,1.67
2023-03-07T01:13:19.174Z,1.70
2023-03-07T01:15:46.419Z,1.90
2023-03-07T01:18:13.664Z,2.13
2023-03-07T01:20:41.389Z,2.42
2023-03-07T01:23:10.737Z,2.58
2023-03-07T01:25:42.583Z,2.20
2023-03-07T01:28:13.541Z,2.20
2023-03-07T01:30:41.264Z,2.05
2023-03-07T01:33:10.225Z,1.77
2023-03-07T01:35:39.179Z,1.83
2023-03-07T01:38:06.667Z,2.20
2023-03-07T01:40:33.872Z,2.55
2023-03-07T01:43:25.942Z,1.80
2023-03-07T01:46:17.757Z,1.75
2023-03-07T01:49:07.706Z,2.10
2023-03-07T01:51:36.714Z,2.60
2023-03-07T01:54:06.657Z,1.90
2023-03-07T01:56:36.716Z,1.95
2023-03-07T01:59:04.767Z,1.90
2023-03-07T02:01:32.508Z,2.10
2023-03-07T02:04:17.415Z,1.80
2023-03-07T02:06:44.536Z,2.15
2023-03-07T02:09:17.978Z,1.80
2023-03-07T02:11:46.330Z,1.67
2023-03-07T02:14:13.549Z,1.90
2023-03-07T02:16:41.430Z,2.05
2023-03-07T02:19:38.071Z,1.77
2023-03-07T02:22:11.271Z,1.45
2023-03-07T02:24:56.039Z,1.90
2023-03-07T02:27:25.914Z,1.80
2023-03-07T02:29:53.325Z,1.98
2023-03-07T02:32:20.626Z,2.15
2023-03-07T02:34:47.833Z,2.00
2023-03-07T02:37:25.748Z,1.88
2023-03-07T02:39:55.116Z,2.50
2023-03-07T02:42:29.504Z,1.95
2023-03-07T02:45:01.834Z,2.22
2023-03-07T02:47:28.939Z,2.03
2023-03-07T02:49:56.041Z,1.80
2023-03-07T02:52:24.120Z,1.90
2023-03-07T02:54:51.029Z,2.10
2023-03-07T02:57:18.033Z,2.03
2023-03-07T02:59:44.932Z,2.10
2023-03-07T03:02:12.273Z,2.15
2023-03-07T03:04:39.408Z,2.50
2023-03-07T03:07:07.030Z,2.05
2023-03-07T03:09:33.967Z,1.83
2023-03-07T03:12:01.091Z,2.40
2023-03-07T03:14:28.016Z,2.30
2023-03-07T03:16:54.874Z,2.08
2023-03-07T03:19:21.844Z,2.40
2023-03-07T03:21:49.027Z,2.08
2023-03-07T03:24:16.135Z,1.77
2023-03-07T03:26:43.016Z,2.55
2023-03-07T03:29:10.376Z,2.03
2023-03-07T03:31:37.434Z,1.90
2023-03-07T03:34:05.886Z,2.17
2023-03-07T03:36:33.228Z,1.60
2023-03-07T03:39:00.649Z,1.50
2023-03-07T03:41:27.714Z,2.35
2023-03-07T03:43:54.668Z,1.63
2023-03-07T03:46:21.724Z,2.10
2023-03-07T03:48:55.926Z,1.75
2023-03-07T03:53:51.790Z,3.40
2023-03-07T03:56:23.411Z,2.17
2023-03-07T03:58:53.281Z,2.00
2023-03-07T04:01:22.446Z,2.15
2023-03-07T04:03:51.442Z,2.22
2023-03-07T04:06:22.026Z,1.77
2023-03-07T04:08:50.020Z,2.10
2023-03-07T04:11:17.666Z,2.90
2023-03-07T04:13:44.673Z,2.47
2023-03-07T04:16:11.628Z,2.00
2023-03-07T04:18:40.261Z,1.83
2023-03-07T04:21:08.802Z,1.92
2023-03-07T04:23:35.568Z,2.10
2023-03-07T04:26:05.065Z,2.00
2023-03-07T04:28:46.495Z,1.90
2023-03-07T04:31:15.816Z,2.10
2023-03-07T04:33:43.715Z,2.60
2023-03-07T04:36:11.553Z,2.28
2023-03-07T04:38:39.387Z,2.00
2023-03-07T04:41:07.664Z,2.58
2023-03-07T04:43:34.747Z,2.08
2023-03-07T04:46:01.588Z,2.25
2023-03-07T04:48:28.665Z,1.85
2023-03-07T04:50:55.860Z,2.35
2023-03-07T04:53:23.190Z,2.08
2023-03-07T04:55:50.140Z,2.20
2023-03-07T04:58:17.059Z,2.40
2023-03-07T05:00:45.859Z,2.20
2023-03-07T05:03:14.748Z,2.13
2023-03-07T05:05:41.870Z,2.58
2023-03-07T05:08:09.091Z,2.85
2023-03-07T05:10:37.138Z,2.28
2023-03-07T05:13:04.892Z,2.58
2023-03-07T05:15:32.034Z,2.13
2023-03-07T05:17:59.002Z,2.13
2023-03-07T05:20:25.828Z,2.90
2023-03-07T05:22:52.974Z,2.53
2023-03-07T05:25:19.999Z,2.90
2023-03-07T05:27:47.331Z,3.15
2023-03-07T05:30:15.297Z,2.50
2023-03-07T05:32:42.807Z,2.92
2023-03-07T05:35:11.024Z,2.88
2023-03-07T05:37:38.080Z,3.20
2023-03-07T05:40:11.868Z,3.67
2023-03-07T05:42:38.914Z,2.97
2023-03-07T05:45:06.445Z,3.38
2023-03-07T05:47:33.453Z,3.38
2023-03-07T05:50:00.440Z,2.72
2023-03-07T05:52:28.014Z,2.58
2023-03-07T05:54:55.430Z,3.35
2023-03-07T05:57:23.329Z,2.40
2023-03-07T05:59:50.106Z,3.00
2023-03-07T06:02:17.281Z,2.60
2023-03-07T06:04:44.643Z,3.10
2023-03-07T06:07:11.460Z,2.55
2023-03-07T06:09:38.397Z,2.42
2023-03-07T06:12:05.275Z,3.00
2023-03-07T06:14:33.224Z,3.35
2023-03-07T06:17:01.506Z,3.00
2023-03-07T06:19:28.716Z,2.38
2023-03-07T06:21:55.730Z,3.05
2023-03-07T06:24:22.743Z,2.33
2023-03-07T06:26:49.518Z,2.67
2023-03-07T06:29:16.398Z,3.35
2023-03-07T06:31:43.433Z,2.45
2023-03-07T06:34:11.164Z,2.90
2023-03-07T06:36:37.876Z,3.33
2023-03-07T06:39:04.905Z,2.83
2023-03-07T06:41:32.133Z,2.90
2023-03-07T06:43:59.648Z,3.20
2023-03-07T06:46:26.643Z,3.22
2023-03-07T06:48:55.383Z,3.83
2023-03-07T06:51:22.190Z,3.35
2023-03-07T06:53:49.235Z,3.50
2023-03-07T06:56:16.084Z,4.20
2023-03-07T06:58:43.104Z,3.33
2023-03-07T07:01:19.487Z,3.00
2023-03-07T07:03:46.389Z,4.53
2023-03-07T07:06:13.314Z,5.45
2023-03-07T07:08:40.305Z,3.10
2023-03-07T07:11:07.125Z,3.25
2023-03-07T07:13:34.054Z,3.28
2023-03-07T07:16:09.008Z,3.08
2023-03-07T07:18:36.110Z,3.05
2023-03-07T07:21:04.210Z,2.70
2023-03-07T07:23:31.401Z,2.67
2023-03-07T07:25:58.123Z,2.28
2023-03-07T07:28:25.098Z,2.55
2023-03-07T07:30:51.928Z,2.63
2023-03-07T07:33:19.083Z,2.28
2023-03-07T07:35:47.368Z,2.90
2023-03-07T07:38:14.679Z,2.90
2023-03-07T07:40:41.800Z,2.30
2023-03-07T07:43:14.800Z,2.30
2023-03-07T07:45:41.642Z,2.00
2023-03-07T07:48:08.808Z,2.00
2023-03-07T07:50:35.862Z,1.90
2023-03-07T07:53:02.621Z,2.00
2023-03-07T07:55:29.591Z,2.47
2023-03-07T07:57:56.408Z,2.03
2023-03-07T08:00:23.359Z,2.17
2023-03-07T08:02:51.185Z,2.00
2023-03-07T08:05:20.170Z,1.80
2023-03-07T08:07:47.482Z,1.88
2023-03-07T08:10:16.292Z,2.20
2023-03-07T08:12:52.960Z,1.70
2023-03-07T08:15:24.360Z,2.20
2023-03-07T08:17:52.688Z,1.80
2023-03-07T08:20:22.573Z,2.50
2023-03-07T08:22:50.973Z,2.35
2023-03-07T08:25:21.938Z,2.65
2023-03-07T08:27:53.404Z,2.20
2023-03-07T08:30:22.006Z,2.38
2023-03-07T08:32:50.993Z,1.95
2023-03-07T08:35:18.599Z,2.33
2023-03-07T08:37:45.660Z,1.83
2023-03-07T08:40:14.630Z,1.95
2023-03-07T08:42:42.045Z,2.90
2023-03-07T08:45:09.758Z,3.28
2023-03-07T08:47:36.866Z,2.13
2023-03-07T08:50:05.651Z,1.75
2023-03-07T08:52:33.157Z,1.60
2023-03-07T08:55:00.199Z,1.90
2023-03-07T08:57:27.397Z,1.55
2023-03-07T08:59:54.386Z,1.60
2023-03-07T09:02:21.718Z,1.80
2023-03-07T09:04:48.658Z,1.50
2023-03-07T09:07:15.613Z,1.67
2023-03-07T09:09:42.628Z,1.35
2023-03-07T09:12:09.812Z,1.90
2023-03-07T09:14:36.734Z,1.90
2023-03-07T09:17:04.852Z,1.73
2023-03-07T09:19:31.944Z,1.52
2023-03-07T09:21:58.842Z,1.65
2023-03-07T09:24:25.838Z,1.67
2023-03-07T09:26:53.421Z,1.52
2023-03-07T09:29:20.478Z,1.50
2023-03-07T09:31:47.497Z,1.30
2023-03-07T09:34:14.813Z,1.35
2023-03-07T09:36:41.919Z,1.50
2023-03-07T09:39:08.950Z,1.52
2023-03-07T09:41:57.029Z,1.48
2023-03-07T09:44:53.161Z,1.23
2023-03-07T09:47:20.179Z,1.67
2023-03-07T09:49:49.817Z,1.88
2023-03-07T09:52:27.366Z,1.75
2023-03-07T09:55:01.468Z,1.80
2023-03-07T09:57:31.934Z,1.75
2023-03-07T10:00:00.621Z,1.60
2023-03-07T10:02:40.562Z,1.33
2023-03-07T10:05:14.280Z,1.10
2023-03-07T10:07:41.453Z,1.30
2023-03-07T10:10:36.326Z,1.63
2023-03-07T10:13:41.575Z,1.00
2023-03-07T10:16:27.503Z,1.20
2023-03-07T10:19:03.158Z,1.40
2023-03-07T10:22:05.908Z,1.45
2023-03-07T10:25:07.500Z,1.55
2023-03-07T10:27:34.581Z,2.17
2023-03-07T10:30:11.769Z,1.38
2023-03-07T10:32:44.290Z,1.40
2023-03-07T10:35:11.324Z,1.20
2023-03-07T10:37:53.516Z,1.40
2023-03-07T10:40:26.283Z,1.45
2023-03-07T10:42:55.180Z,1.50
2023-03-07T10:45:22.188Z,1.40
2023-03-07T10:47:49.393Z,1.45
2023-03-07T10:50:31.703Z,1.13
2023-03-07T10:53:01.974Z,1.48
2023-03-07T10:55:33.892Z,1.40
2023-03-07T10:58:17.688Z,1.40
2023-03-07T11:00:44.896Z,0.98
2023-03-07T11:03:25.434Z,1.02
2023-03-07T11:05:52.779Z,1.20
2023-03-07T11:08:34.529Z,1.00
2023-03-07T11:11:04.662Z,1.02
2023-03-07T11:13:32.132Z,1.60
2023-03-07T11:16:15.323Z,1.25
2023-03-07T11:18:44.926Z,1.40
2023-03-07T11:21:53.241Z,1.30
2023-03-07T11:24:28.760Z,1.30
2023-03-07T11:26:58.193Z,1.30
2023-03-07T11:29:26.184Z,0.98
2023-03-07T11:32:04.731Z,1.30
2023-03-07T11:34:50.260Z,0.75
2023-03-07T11:37:34.402Z,0.85
2023-03-07T11:40:42.730Z,0.77
2023-03-07T11:43:22.147Z,0.85
2023-03-07T11:45:57.300Z,1.08
2023-03-07T11:48:51.704Z,0.98
2023-03-07T11:51:41.415Z,0.90
2023-03-07T11:54:12.827Z,1.00
2023-03-07T11:56:46.979Z,0.85
2023-03-07T11:59:37.809Z,1.00
2023-03-07T12:02:29.336Z,0.80
2023-03-07T12:05:21.673Z,0.90
2023-03-07T12:07:48.720Z,1.00
2023-03-07T12:10:15.578Z,0.85
2023-03-07T12:12:55.527Z,0.80
2023-03-07T12:15:51.330Z,0.82
2023-03-07T12:18:49.187Z,0.98
2023-03-07T12:21:25.152Z,0.90
2023-03-07T12:24:17.968Z,1.08
2023-03-07T12:27:26.238Z,1.20
2023-03-07T12:30:30.849Z,0.75
2023-03-07T12:32:58.626Z,1.00
2023-03-07T12:35:32.935Z,0.90
2023-03-07T12:38:12.685Z,0.85
2023-03-07T12:40:48.546Z,0.80
2023-03-07T12:43:23.866Z,0.90
2023-03-07T12:45:56.422Z,0.65
2023-03-07T12:48:30.669Z,0.93
2023-03-07T12:51:00.806Z,1.27
2023-03-07T12:53:38.022Z,0.70
2023-03-07T12:56:20.844Z,0.88
2023-03-07T12:58:54.233Z,1.25
2023-03-07T13:01:32.448Z,1.00
2023-03-07T13:04:23.806Z,1.02
2023-03-07T13:06:51.635Z,0.70
2023-03-07T13:09:27.140Z,0.98
2023-03-07T13:12:24.112Z,0.77
2023-03-07T13:15:31.296Z,0.90
2023-03-07T13:18:00.768Z,0.80
2023-03-07T13:20:27.544Z,0.80
2023-03-07T13:22:56.535Z,1.30
2023-03-07T13:25:24.861Z,0.80
2023-03-07T13:27:56.591Z,0.80
2023-03-07T13:30:31.590Z,1.00
2023-03-07T13:33:23.418Z,1.17
2023-03-07T13:35:59.492Z,0.80
2023-03-07T13:38:44.450Z,0.90
2023-03-07T13:41:13.742Z,0.98
2023-03-07T13:43:46.967Z,0.90
2023-03-07T13:46:38.620Z,0.85
2023-03-07T13:49:05.566Z,1.00
2023-03-07T13:51:32.582Z,1.13
2023-03-07T13:54:04.769Z,0.77
2023-03-07T13:56:39.686Z,0.98
2023-03-07T14:01:59.465Z,1.13
2023-03-07T14:04:54.598Z,0.90
2023-03-07T14:07:34.601Z,0.88
2023-03-07T14:10:22.748Z,0.90
2023-03-07T14:13:09.518Z,0.98
2023-03-07T14:16:17.862Z,1.13
2023-03-07T14:19:01.908Z,1.13
2023-03-07T14:22:01.433Z,0.80
2023-03-07T14:24:39.684Z,0.80
2023-03-07T14:27:13.229Z,0.80
2023-03-07T14:29:49.888Z,0.75
2023-03-07T14:32:31.386Z,0.73
2023-03-07T14:34:58.918Z,0.88
2023-03-07T14:37:27.172Z,0.63
2023-03-07T14:40:00.329Z,0.93
2023-03-07T14:42:52.799Z,1.20
2023-03-07T14:45:25.581Z,0.88
2023-03-07T14:47:52.371Z,1.17
2023-03-07T14:50:27.290Z,0.95
2023-03-07T14:53:02.940Z,0.70
2023-03-07T14:55:39.539Z,1.00
2023-03-07T14:58:07.156Z,0.82
2023-03-07T15:00:35.940Z,0.80
2023-03-07T15:03:12.302Z,1.10
2023-03-07T15:05:52.995Z,0.88
2023-03-07T15:08:26.212Z,1.02
2023-03-07T15:11:18.110Z,0.82
2023-03-07T15:13:59.537Z,1.02
2023-03-07T15:16:35.608Z,0.77
2023-03-07T15:19:25.250Z,0.95
2023-03-07T15:21:57.779Z,1.25
2023-03-07T15:24:54.939Z,0.93
2023-03-07T15:27:27.937Z,1.00
2023-03-07T15:29:55.776Z,1.00
2023-03-07T15:32:40.855Z,1.00
2023-03-07T15:37:36.575Z,0.77
2023-03-07T15:40:26.879Z,0.90
2023-03-07T15:43:16.759Z,0.93
2023-03-07T15:45:57.790Z,1.10
2023-03-07T15:48:30.252Z,1.00
2023-03-07T15:51:00.052Z,1.02
2023-03-07T15:53:34.016Z,1.10
2023-03-07T15:56:05.422Z,1.27
2023-03-07T15:58:35.542Z,1.10
2023-03-07T16:01:20.891Z,1.00
2023-03-07T16:03:50.351Z,0.98
2023-03-07T16:06:39.041Z,1.05
2023-03-07T16:09:07.433Z,0.90
2023-03-07T16:11:35.901Z,1.30
2023-03-07T16:14:04.720Z,0.93
2023-03-07T16:16:31.854Z,0.90
2023-03-07T16:18:58.861Z,1.17
2023-03-07T16:21:26.551Z,1.02
2023-03-07T16:23:53.626Z,1.42
2023-03-07T16:26:23.300Z,1.13
2023-03-07T16:28:51.188Z,1.30
2023-03-07T16:31:18.990Z,0.82
2023-03-07T16:33:47.062Z,1.02
2023-03-07T16:36:15.919Z,1.13
2023-03-07T16:38:43.532Z,1.55
2023-03-07T16:41:19.614Z,0.90
2023-03-07T16:43:52.039Z,1.10
2023-03-07T16:46:19.803Z,1.10
2023-03-07T16:48:46.941Z,0.98
2023-03-07T16:51:19.123Z,1.00
2023-03-07T16:53:47.504Z,1.27
2023-03-07T16:56:25.398Z,1.17
2023-03-07T16:58:53.388Z,0.93
2023-03-07T17:01:20.189Z,1.17
2023-03-07T17:03:47.079Z,1.17
2023-03-07T17:06:16.542Z,1.50
2023-03-07T17:08:44.497Z,1.15
2023-03-07T17:11:20.127Z,0.90
2023-03-07T17:13:48.747Z,1.13
2023-03-07T17:16:17.201Z,1.55
2023-03-07T17:18:44.901Z,1.50
2023-03-07T17:21:16.786Z,1.80
2023-03-07T17:23:45.134Z,0.95
2023-03-07T17:26:31.860Z,1.40
2023-03-07T17:29:06.077Z,1.20
2023-03-07T17:31:33.027Z,1.45
2023-03-07T17:33:59.842Z,1.13
2023-03-07T17:36:26.986Z,1.20
2023-03-07T17:38:53.754Z,1.00
2023-03-07T17:41:20.750Z,0.90
2023-03-07T17:43:47.746Z,1.27
2023-03-07T17:46:14.551Z,1.45
2023-03-07T17:48:41.562Z,1.10
2023-03-07T17:51:11.667Z,0.90
2023-03-07T17:53:39.143Z,1.00
2023-03-07T17:56:10.709Z,1.20
2023-03-07T17:58:38.736Z,1.40
2023-03-07T18:01:11.306Z,1.00
2023-03-07T18:03:39.182Z,1.30
2023-03-07T18:06:06.208Z,2.03
2023-03-07T18:08:33.168Z,3.70
2023-03-07T18:11:11.493Z,3.20
2023-03-07T18:13:38.875Z,2.47
2023-03-07T18:16:06.978Z,3.05
2023-03-07T18:18:36.570Z,2.35
2023-03-07T18:21:09.155Z,1.85
2023-03-07T18:23:36.421Z,2.35
2023-03-07T18:26:06.471Z,1.98
2023-03-07T18:28:39.200Z,2.25
2023-03-07T18:31:18.177Z,1.77
2023-03-07T18:33:45.833Z,1.83
2023-03-07T18:36:15.077Z,1.50
2023-03-07T18:38:43.102Z,1.40
2023-03-07T18:41:11.707Z,1.48
2023-03-07T18:43:39.445Z,1.95
2023-03-07T18:46:18.897Z,1.40
2023-03-07T18:48:46.184Z,1.63
2023-03-07T18:51:15.764Z,1.20
2023-03-07T18:53:43.263Z,2.45
2023-03-07T18:56:15.257Z,1.30
2023-03-07T18:58:42.579Z,1.02
2023-03-07T19:01:39.722Z,1.60
2023-03-07T19:04:07.894Z,1.52
2023-03-07T19:06:40.843Z,1.38
2023-03-07T19:09:13.471Z,1.33
2023-03-07T19:11:40.296Z,1.48
2023-03-07T19:14:07.026Z,1.23
2023-03-07T19:16:34.152Z,1.33
2023-03-07T19:19:01.151Z,1.13
2023-03-07T19:21:29.345Z,1.52
2023-03-07T19:23:58.447Z,1.40
2023-03-07T19:26:26.808Z,1.58
2023-03-07T19:28:56.005Z,1.30
2023-03-07T19:31:25.581Z,1.70
2023-03-07T19:33:53.147Z,1.23
2023-03-07T19:36:22.226Z,1.55
2023-03-07T19:38:50.949Z,1.20
2023-03-07T19:41:20.102Z,1.35
2023-03-07T19:43:47.210Z,1.63
2023-03-07T19:46:16.884Z,1.27
2023-03-07T19:48:44.300Z,1.30
2023-03-07T19:51:16.294Z,1.48
2023-03-07T19:53:44.393Z,1.80
2023-03-07T19:56:13.373Z,1.58
2023-03-07T19:58:40.239Z,1.42
2023-03-07T20:01:12.615Z,1.20
2023-03-07T20:03:39.730Z,1.52
2023-03-07T20:06:08.579Z,1.33
2023-03-07T20:08:35.858Z,1.33
2023-03-07T20:11:18.450Z,1.60
2023-03-07T20:13:46.973Z,1.63
2023-03-07T20:16:15.711Z,1.05
2023-03-07T20:18:42.842Z,1.23
2023-03-07T20:21:12.704Z,1.65
2023-03-07T20:23:42.600Z,1.30
2023-03-07T20:26:22.950Z,1.50
2023-03-07T20:28:51.893Z,1.30
2023-03-07T20:31:22.278Z,1.60
2023-03-07T20:33:50.327Z,1.58
2023-03-07T20:36:18.900Z,1.35
2023-03-07T20:38:50.312Z,1.70
2023-03-07T20:41:21.102Z,1.33
2023-03-07T20:43:48.917Z,1.75
2023-03-07T20:46:17.462Z,1.38
2023-03-07T20:48:45.145Z,1.92
2023-03-07T20:51:23.914Z,1.40
2023-03-07T20:53:55.224Z,1.73
2023-03-07T20:56:23.102Z,1.85
2023-03-07T20:58:50.337Z,1.90
2023-03-07T21:01:21.229Z,1.50
2023-03-07T21:03:51.600Z,1.70
2023-03-07T21:06:19.232Z,2.20
2023-03-07T21:08:47.712Z,1.75
2023-03-07T21:11:18.200Z,1.92
2023-03-07T21:13:47.724Z,1.88
2023-03-07T21:16:19.751Z,1.73
2023-03-07T21:18:47.026Z,1.70
2023-03-07T21:21:23.224Z,2.00
2023-03-07T21:23:50.225Z,1.80
2023-03-07T21:26:25.639Z,2.90
2023-03-07T21:28:53.220Z,1.63
2023-03-07T21:31:38.955Z,1.75
2023-03-07T21:34:08.698Z,2.03
2023-03-07T21:36:35.731Z,1.75
2023-03-07T21:39:05.683Z,1.83
2023-03-07T21:41:32.799Z,1.65
2023-03-07T21:44:00.527Z,1.50
2023-03-07T21:46:28.000Z,1.98
2023-03-07T21:48:59.552Z,1.90
2023-03-07T21:51:26.676Z,1.60
2023-03-07T21:53:53.696Z,2.00
2023-03-07T21:56:22.660Z,2.17
2023-03-07T21:58:51.560Z,2.10
2023-03-07T22:01:29.647Z,1.95
2023-03-07T22:03:58.741Z,2.00
2023-03-07T22:06:27.621Z,2.42
2023-03-07T22:08:55.125Z,2.13
2023-03-07T22:11:22.649Z,1.90
2023-03-07T22:13:50.146Z,1.88
2023-03-07T22:16:20.839Z,2.40
2023-03-07T22:18:55.800Z,2.05
2023-03-07T22:21:26.374Z,1.83
2023-03-07T22:23:58.347Z,2.05
2023-03-07T22:26:25.877Z,2.00
2023-03-07T22:28:54.172Z,1.95
2023-03-07T22:31:21.304Z,2.30
2023-03-07T22:33:48.234Z,1.80
2023-03-07T22:36:15.630Z,2.33
2023-03-07T22:38:43.688Z,2.20
2023-03-07T22:41:13.833Z,2.28
2023-03-07T22:43:41.485Z,2.40
2023-03-07T22:46:11.245Z,2.13
2023-03-07T22:48:39.128Z,2.00
2023-03-07T22:51:13.954Z,2.10
2023-03-07T22:53:41.161Z,2.78
2023-03-07T22:56:15.125Z,2.35
2023-03-07T22:58:42.047Z,1.95
2023-03-07T23:01:17.484Z,2.45
2023-03-07T23:03:44.585Z,2.00
2023-03-07T23:06:12.187Z,2.35
2023-03-07T23:08:39.257Z,2.13
2023-03-07T23:11:08.717Z,2.35
2023-03-07T23:13:36.124Z,2.53
2023-03-07T23:16:14.378Z,2.60
2023-03-07T23:18:41.973Z,1.83
2023-03-07T23:21:11.647Z,1.90
2023-03-07T23:23:41.342Z,1.60
2023-03-07T23:26:08.544Z,2.50
2023-03-07T23:28:35.664Z,2.50
2023-03-07T23:31:02.667Z,2.38
2023-03-07T23:33:29.636Z,2.70
2023-03-07T23:36:00.512Z,2.30
2023-03-07T23:38:27.601Z,2.42
2023-03-07T23:40:54.529Z,2.20
2023-03-07T23:43:21.585Z,2.00
2023-03-07T23:45:48.547Z,2.10
2023-03-07T23:48:15.617Z,1.80
2023-03-07T23:50:44.008Z,1.95
2023-03-07T23:53:10.907Z,1.85
2023-03-07T23:55:41.032Z,2.20
2023-03-07T23:58:08.366Z,2.60
